sensor_id;sensor_type;location;lat;lon;timestamp;temperature;humidity
38239;DHT22;24035;48.900;9.188;2023-01-29T00:02:06;0.10;1.00
38239;DHT22;24035;48.900;9.188;2023-01-29T00:04:32;0.10;1.00
38239;DHT22;24035;48.900;9.188;2023-01-29T00:06:58;0.10;1.00
38239;DHT22;24035;48.900;9.188;2023-01-29T00:09:24;0.00;1.00
38239;DHT22;24035;48.900;9.188;2023-01-29T00:11:49;0.10;1.00
38239;DHT22;24035;48.900;9.188;2023-01-29T00:14:15;0.10;1.00
38239;DHT22;24035;48.900;9.188;2023-01-29T00:16:41;0.20;1.00
38239;DHT22;24035;48.900;9.188;2023-01-29T00:19:07;0.40;99.90
38239;DHT22;24035;48.900;9.188;2023-01-29T00:21:32;0.40;99.90
38239;DHT22;24035;48.900;9.188;2023-01-29T00:23:58;0.30;99.90
38239;DHT22;24035;48.900;9.188;2023-01-29T00:26:25;0.10;99.90
38239;DHT22;24035;48.900;9.188;2023-01-29T00:28:51;0.00;99.90
38239;DHT22;24035;48.900;9.188;2023-01-29T00:31:22;-0.10;1.00
38239;DHT22;24035;48.900;9.188;2023-01-29T00:33:48;-0.10;1.00
38239;DHT22;24035;48.900;9.188;2023-01-29T00:36:16;-0.10;1.00
38239;DHT22;24035;48.900;9.188;2023-01-29T00:38:42;-0.10;1.00
38239;DHT22;24035;48.900;9.188;2023-01-29T00:41:13;-0.10;1.00
38239;DHT22;24035;48.900;9.188;2023-01-29T00:43:59;-0.10;1.00
38239;DHT22;24035;48.900;9.188;2023-01-29T00:46:43;-0.10;1.00
38239;DHT22;24035;48.900;9.188;2023-01-29T00:49:09;-0.10;1.00
38239;DHT22;24035;48.900;9.188;2023-01-29T00:51:36;0.00;1.00
38239;DHT22;24035;48.900;9.188;2023-01-29T00:54:02;0.10;1.00
38239;DHT22;24035;48.900;9.188;2023-01-29T00:56:29;0.10;1.00
38239;DHT22;24035;48.900;9.188;2023-01-29T00:58:55;0.10;1.00
38239;DHT22;24035;48.900;9.188;2023-01-29T01:01:22;0.10;1.00
38239;DHT22;24035;48.900;9.188;2023-01-29T01:04:08;0.10;1.00
38239;DHT22;24035;48.900;9.188;2023-01-29T01:06:41;0.10;1.00
38239;DHT22;24035;48.900;9.188;2023-01-29T01:09:08;0.00;1.00
38239;DHT22;24035;48.900;9.188;2023-01-29T01:11:53;0.00;1.00
38239;DHT22;24035;48.900;9.188;2023-01-29T01:14:19;0.00;1.00
38239;DHT22;24035;48.900;9.188;2023-01-29T01:16:46;-0.10;1.00
38239;DHT22;24035;48.900;9.188;2023-01-29T01:19:12;-0.10;1.00
38239;DHT22;24035;48.900;9.188;2023-01-29T01:21:38;-0.10;1.00
38239;DHT22;24035;48.900;9.188;2023-01-29T01:24:04;-0.10;1.00
38239;DHT22;24035;48.900;9.188;2023-01-29T01:26:31;-0.10;1.00
38239;DHT22;24035;48.900;9.188;2023-01-29T01:28:57;-0.10;1.00
38239;DHT22;24035;48.900;9.188;2023-01-29T01:31:23;-0.20;1.00
38239;DHT22;24035;48.900;9.188;2023-01-29T01:33:48;-0.20;1.00
38239;DHT22;24035;48.900;9.188;2023-01-29T01:36:15;-0.20;1.00
38239;DHT22;24035;48.900;9.188;2023-01-29T01:38:41;-0.20;1.00
38239;DHT22;24035;48.900;9.188;2023-01-29T01:41:20;-0.20;1.00
38239;DHT22;24035;48.900;9.188;2023-01-29T01:43:55;-0.20;1.00
38239;DHT22;24035;48.900;9.188;2023-01-29T01:46:22;-0.20;1.00
38239;DHT22;24035;48.900;9.188;2023-01-29T01:49:09;-0.30;1.00
38239;DHT22;24035;48.900;9.188;2023-01-29T01:51:39;-0.30;1.00
38239;DHT22;24035;48.900;9.188;2023-01-29T01:54:11;-0.30;1.00
38239;DHT22;24035;48.900;9.188;2023-01-29T01:56:43;-0.40;1.00
38239;DHT22;24035;48.900;9.188;2023-01-29T01:59:12;-0.40;1.00
38239;DHT22;24035;48.900;9.188;2023-01-29T02:01:40;-0.30;1.00
38239;DHT22;24035;48.900;9.188;2023-01-29T02:04:15;-0.40;1.00
38239;DHT22;24035;48.900;9.188;2023-01-29T02:07:01;-0.40;1.00
38239;DHT22;24035;48.900;9.188;2023-01-29T02:09:52;-0.40;1.00
38239;DHT22;24035;48.900;9.188;2023-01-29T02:12:19;-0.40;1.00
38239;DHT22;24035;48.900;9.188;2023-01-29T02:14:45;-0.50;1.00
38239;DHT22;24035;48.900;9.188;2023-01-29T02:17:15;-0.50;1.00
38239;DHT22;24035;48.900;9.188;2023-01-29T02:28:15;-0.40;1.00
38239;DHT22;24035;48.900;9.188;2023-01-29T02:30:55;-0.40;1.00
38239;DHT22;24035;48.900;9.188;2023-01-29T02:33:47;-0.30;1.00
38239;DHT22;24035;48.900;9.188;2023-01-29T02:39:16;-0.50;1.00
38239;DHT22;24035;48.900;9.188;2023-01-29T02:44:55;-0.50;1.00
38239;DHT22;24035;48.900;9.188;2023-01-29T02:55:37;-0.60;1.00
38239;DHT22;24035;48.900;9.188;2023-01-29T03:01:18;-0.70;1.00
38239;DHT22;24035;48.900;9.188;2023-01-29T03:03:51;-0.70;1.00
38239;DHT22;24035;48.900;9.188;2023-01-29T03:06:21;-0.60;1.00
38239;DHT22;24035;48.900;9.188;2023-01-29T03:09:00;-0.50;1.00
38239;DHT22;24035;48.900;9.188;2023-01-29T03:11:39;-0.50;1.00
38239;DHT22;24035;48.900;9.188;2023-01-29T03:14:15;-0.60;1.00
38239;DHT22;24035;48.900;9.188;2023-01-29T03:17:00;-0.60;1.00
38239;DHT22;24035;48.900;9.188;2023-01-29T03:19:37;-0.60;1.00
38239;DHT22;24035;48.900;9.188;2023-01-29T03:22:05;-0.70;1.00
38239;DHT22;24035;48.900;9.188;2023-01-29T03:24:43;-0.60;1.00
38239;DHT22;24035;48.900;9.188;2023-01-29T03:27:44;-0.60;1.00
38239;DHT22;24035;48.900;9.188;2023-01-29T03:30:35;-0.60;1.00
38239;DHT22;24035;48.900;9.188;2023-01-29T03:33:22;-0.80;1.00
38239;DHT22;24035;48.900;9.188;2023-01-29T03:35:54;-0.80;1.00
38239;DHT22;24035;48.900;9.188;2023-01-29T03:38:21;-0.90;1.00
38239;DHT22;24035;48.900;9.188;2023-01-29T03:40:54;-0.70;1.00
38239;DHT22;24035;48.900;9.188;2023-01-29T03:44:03;-0.80;1.00
38239;DHT22;24035;48.900;9.188;2023-01-29T03:46:44;-0.80;1.00
38239;DHT22;24035;48.900;9.188;2023-01-29T03:49:31;-0.80;1.00
38239;DHT22;24035;48.900;9.188;2023-01-29T03:53:01;-0.70;1.00
38239;DHT22;24035;48.900;9.188;2023-01-29T03:55:32;-0.70;1.00
38239;DHT22;24035;48.900;9.188;2023-01-29T03:58:04;-0.80;1.00
38239;DHT22;24035;48.900;9.188;2023-01-29T04:00:57;-0.80;1.00
38239;DHT22;24035;48.900;9.188;2023-01-29T04:03:35;-0.80;1.00
38239;DHT22;24035;48.900;9.188;2023-01-29T04:06:16;-0.80;1.00
38239;DHT22;24035;48.900;9.188;2023-01-29T04:09:06;-0.90;1.00
38239;DHT22;24035;48.900;9.188;2023-01-29T04:11:36;-0.90;1.00
38239;DHT22;24035;48.900;9.188;2023-01-29T04:14:03;-0.90;1.00
38239;DHT22;24035;48.900;9.188;2023-01-29T04:16:43;-0.90;1.00
38239;DHT22;24035;48.900;9.188;2023-01-29T04:19:11;-1.00;1.00
38239;DHT22;24035;48.900;9.188;2023-01-29T04:21:37;-1.00;1.00
38239;DHT22;24035;48.900;9.188;2023-01-29T04:24:05;-1.10;1.00
38239;DHT22;24035;48.900;9.188;2023-01-29T04:31:48;-1.10;1.00
38239;DHT22;24035;48.900;9.188;2023-01-29T04:34:22;-1.00;1.00
38239;DHT22;24035;48.900;9.188;2023-01-29T04:36:55;-1.00;1.00
38239;DHT22;24035;48.900;9.188;2023-01-29T04:39:29;-1.00;1.00
38239;DHT22;24035;48.900;9.188;2023-01-29T04:42:20;-1.00;1.00
38239;DHT22;24035;48.900;9.188;2023-01-29T04:45:02;-1.00;1.00
38239;DHT22;24035;48.900;9.188;2023-01-29T04:47:34;-1.00;1.00
38239;DHT22;24035;48.900;9.188;2023-01-29T04:50:17;-1.10;1.00
38239;DHT22;24035;48.900;9.188;2023-01-29T04:53:06;-1.00;1.00
38239;DHT22;24035;48.900;9.188;2023-01-29T04:56:07;-0.90;1.00
38239;DHT22;24035;48.900;9.188;2023-01-29T04:58:40;-0.90;1.00
38239;DHT22;24035;48.900;9.188;2023-01-29T05:01:11;-1.00;1.00
38239;DHT22;24035;48.900;9.188;2023-01-29T05:03:39;-1.00;1.00
38239;DHT22;24035;48.900;9.188;2023-01-29T05:06:07;-0.90;1.00
38239;DHT22;24035;48.900;9.188;2023-01-29T05:08:36;-1.00;1.00
38239;DHT22;24035;48.900;9.188;2023-01-29T05:11:02;-0.90;1.00
38239;DHT22;24035;48.900;9.188;2023-01-29T05:13:29;-0.90;1.00
38239;DHT22;24035;48.900;9.188;2023-01-29T05:16:29;-0.90;1.00
38239;DHT22;24035;48.900;9.188;2023-01-29T05:19:09;-1.00;1.00
38239;DHT22;24035;48.900;9.188;2023-01-29T05:21:36;-0.90;1.00
38239;DHT22;24035;48.900;9.188;2023-01-29T05:24:13;-1.00;1.00
38239;DHT22;24035;48.900;9.188;2023-01-29T05:26:41;-1.10;1.00
38239;DHT22;24035;48.900;9.188;2023-01-29T05:29:26;-1.10;1.00
38239;DHT22;24035;48.900;9.188;2023-01-29T05:31:51;-1.10;1.00
38239;DHT22;24035;48.900;9.188;2023-01-29T05:34:17;-1.10;1.00
38239;DHT22;24035;48.900;9.188;2023-01-29T05:36:43;-1.10;1.00
38239;DHT22;24035;48.900;9.188;2023-01-29T05:39:08;-1.10;1.00
38239;DHT22;24035;48.900;9.188;2023-01-29T05:41:34;-1.10;1.00
38239;DHT22;24035;48.900;9.188;2023-01-29T05:43:59;-1.00;1.00
38239;DHT22;24035;48.900;9.188;2023-01-29T05:46:25;-1.00;1.00
38239;DHT22;24035;48.900;9.188;2023-01-29T05:48:54;-1.10;1.00
38239;DHT22;24035;48.900;9.188;2023-01-29T05:51:19;-1.10;1.00
38239;DHT22;24035;48.900;9.188;2023-01-29T05:53:45;-1.10;1.00
38239;DHT22;24035;48.900;9.188;2023-01-29T05:56:10;-1.10;1.00
38239;DHT22;24035;48.900;9.188;2023-01-29T05:58:37;-1.10;1.00
38239;DHT22;24035;48.900;9.188;2023-01-29T06:01:14;-1.10;1.00
38239;DHT22;24035;48.900;9.188;2023-01-29T06:03:40;-1.10;1.00
38239;DHT22;24035;48.900;9.188;2023-01-29T06:06:06;-1.20;1.00
38239;DHT22;24035;48.900;9.188;2023-01-29T06:08:32;-1.20;1.00
38239;DHT22;24035;48.900;9.188;2023-01-29T06:10:57;-1.20;1.00
38239;DHT22;24035;48.900;9.188;2023-01-29T06:13:23;-1.20;1.00
38239;DHT22;24035;48.900;9.188;2023-01-29T06:15:49;-1.10;1.00
38239;DHT22;24035;48.900;9.188;2023-01-29T06:18:14;-1.20;1.00
38239;DHT22;24035;48.900;9.188;2023-01-29T06:20:40;-1.20;1.00
38239;DHT22;24035;48.900;9.188;2023-01-29T06:23:06;-1.20;1.00
38239;DHT22;24035;48.900;9.188;2023-01-29T06:25:31;-1.30;1.00
38239;DHT22;24035;48.900;9.188;2023-01-29T06:27:57;-1.20;1.00
38239;DHT22;24035;48.900;9.188;2023-01-29T06:30:22;-1.30;1.00
38239;DHT22;24035;48.900;9.188;2023-01-29T06:32:48;-1.20;1.00
38239;DHT22;24035;48.900;9.188;2023-01-29T06:35:14;-1.20;1.00
38239;DHT22;24035;48.900;9.188;2023-01-29T06:37:39;-1.20;1.00
38239;DHT22;24035;48.900;9.188;2023-01-29T06:40:05;-1.20;1.00
38239;DHT22;24035;48.900;9.188;2023-01-29T06:42:34;-1.20;27.60
38239;DHT22;24035;48.900;9.188;2023-01-29T06:44:59;-1.20;39.50
38239;DHT22;24035;48.900;9.188;2023-01-29T06:47:26;-1.10;1.00
38239;DHT22;24035;48.900;9.188;2023-01-29T06:49:51;-1.10;1.00
38239;DHT22;24035;48.900;9.188;2023-01-29T06:52:17;-1.10;1.00
38239;DHT22;24035;48.900;9.188;2023-01-29T06:54:43;-1.10;1.00
38239;DHT22;24035;48.900;9.188;2023-01-29T06:57:08;-1.10;1.00
38239;DHT22;24035;48.900;9.188;2023-01-29T06:59:34;-1.20;1.00
38239;DHT22;24035;48.900;9.188;2023-01-29T07:02:00;-1.20;1.00
38239;DHT22;24035;48.900;9.188;2023-01-29T07:04:25;-1.20;1.00
38239;DHT22;24035;48.900;9.188;2023-01-29T07:06:51;-1.20;1.00
38239;DHT22;24035;48.900;9.188;2023-01-29T07:09:16;-1.20;1.00
38239;DHT22;24035;48.900;9.188;2023-01-29T07:11:42;-1.10;1.00
38239;DHT22;24035;48.900;9.188;2023-01-29T07:14:07;-1.00;1.00
38239;DHT22;24035;48.900;9.188;2023-01-29T07:16:33;-1.00;1.00
38239;DHT22;24035;48.900;9.188;2023-01-29T07:18:59;-1.10;1.00
38239;DHT22;24035;48.900;9.188;2023-01-29T07:21:24;-1.10;1.00
38239;DHT22;24035;48.900;9.188;2023-01-29T07:23:50;-1.10;1.00
38239;DHT22;24035;48.900;9.188;2023-01-29T07:26:16;-1.20;1.00
38239;DHT22;24035;48.900;9.188;2023-01-29T07:28:41;-1.20;1.00
38239;DHT22;24035;48.900;9.188;2023-01-29T07:31:08;-1.20;1.00
38239;DHT22;24035;48.900;9.188;2023-01-29T07:33:35;-1.10;1.00
38239;DHT22;24035;48.900;9.188;2023-01-29T07:36:01;-1.10;1.00
38239;DHT22;24035;48.900;9.188;2023-01-29T07:38:27;-0.90;1.00
38239;DHT22;24035;48.900;9.188;2023-01-29T07:40:52;-0.80;1.00
38239;DHT22;24035;48.900;9.188;2023-01-29T07:43:18;-0.70;1.00
38239;DHT22;24035;48.900;9.188;2023-01-29T07:45:44;-0.70;1.00
38239;DHT22;24035;48.900;9.188;2023-01-29T07:48:11;-0.50;1.00
38239;DHT22;24035;48.900;9.188;2023-01-29T07:50:38;-0.50;1.00
38239;DHT22;24035;48.900;9.188;2023-01-29T07:53:03;-0.60;99.90
38239;DHT22;24035;48.900;9.188;2023-01-29T07:55:29;-0.60;99.90
38239;DHT22;24035;48.900;9.188;2023-01-29T07:57:56;-0.70;1.00
38239;DHT22;24035;48.900;9.188;2023-01-29T08:00:22;-0.70;1.00
38239;DHT22;24035;48.900;9.188;2023-01-29T08:02:48;-0.50;1.00
38239;DHT22;24035;48.900;9.188;2023-01-29T08:05:13;-0.50;1.00
38239;DHT22;24035;48.900;9.188;2023-01-29T08:07:39;-0.50;1.00
38239;DHT22;24035;48.900;9.188;2023-01-29T08:10:05;-0.60;1.00
38239;DHT22;24035;48.900;9.188;2023-01-29T08:12:31;-0.60;1.00
38239;DHT22;24035;48.900;9.188;2023-01-29T08:14:56;-0.60;1.00
38239;DHT22;24035;48.900;9.188;2023-01-29T08:17:22;-0.60;1.00
38239;DHT22;24035;48.900;9.188;2023-01-29T08:19:47;-0.60;1.00
38239;DHT22;24035;48.900;9.188;2023-01-29T08:22:13;-0.70;1.00
38239;DHT22;24035;48.900;9.188;2023-01-29T08:24:41;-0.70;1.00
38239;DHT22;24035;48.900;9.188;2023-01-29T08:27:07;-0.50;1.00
38239;DHT22;24035;48.900;9.188;2023-01-29T08:29:32;-0.50;1.00
38239;DHT22;24035;48.900;9.188;2023-01-29T08:31:58;-0.40;1.00
38239;DHT22;24035;48.900;9.188;2023-01-29T08:34:23;-0.20;1.00
38239;DHT22;24035;48.900;9.188;2023-01-29T08:36:49;-0.10;99.90
38239;DHT22;24035;48.900;9.188;2023-01-29T08:39:15;-0.30;99.90
38239;DHT22;24035;48.900;9.188;2023-01-29T08:41:40;-0.50;99.90
38239;DHT22;24035;48.900;9.188;2023-01-29T08:44:06;-0.60;1.00
38239;DHT22;24035;48.900;9.188;2023-01-29T08:46:32;-0.40;1.00
38239;DHT22;24035;48.900;9.188;2023-01-29T08:48:57;-0.40;99.90
38239;DHT22;24035;48.900;9.188;2023-01-29T08:51:24;-0.30;1.00
38239;DHT22;24035;48.900;9.188;2023-01-29T08:53:51;-0.10;99.90
38239;DHT22;24035;48.900;9.188;2023-01-29T08:56:16;-0.10;99.90
38239;DHT22;24035;48.900;9.188;2023-01-29T08:58:42;0.10;99.90
38239;DHT22;24035;48.900;9.188;2023-01-29T09:01:10;0.30;82.30
38239;DHT22;24035;48.900;9.188;2023-01-29T09:03:37;0.20;91.20
38239;DHT22;24035;48.900;9.188;2023-01-29T09:06:07;0.00;90.10
38239;DHT22;24035;48.900;9.188;2023-01-29T09:08:33;0.00;99.90
38239;DHT22;24035;48.900;9.188;2023-01-29T09:10:58;0.10;99.90
38239;DHT22;24035;48.900;9.188;2023-01-29T09:13:25;0.20;96.80
38239;DHT22;24035;48.900;9.188;2023-01-29T09:15:51;0.30;23.60
38239;DHT22;24035;48.900;9.188;2023-01-29T09:18:16;0.20;1.00
38239;DHT22;24035;48.900;9.188;2023-01-29T09:20:42;0.20;69.60
38239;DHT22;24035;48.900;9.188;2023-01-29T09:23:09;0.50;99.90
38239;DHT22;24035;48.900;9.188;2023-01-29T09:25:35;0.70;3.20
38239;DHT22;24035;48.900;9.188;2023-01-29T09:28:01;0.90;1.00
38239;DHT22;24035;48.900;9.188;2023-01-29T09:30:26;1.00;1.00
38239;DHT22;24035;48.900;9.188;2023-01-29T09:32:52;0.90;1.00
38239;DHT22;24035;48.900;9.188;2023-01-29T09:35:18;1.00;1.00
38239;DHT22;24035;48.900;9.188;2023-01-29T09:37:47;0.90;1.00
38239;DHT22;24035;48.900;9.188;2023-01-29T09:40:54;0.90;1.00
38239;DHT22;24035;48.900;9.188;2023-01-29T09:46:19;1.30;1.00
38239;DHT22;24035;48.900;9.188;2023-01-29T09:48:54;1.70;1.00
38239;DHT22;24035;48.900;9.188;2023-01-29T09:51:29;1.90;1.00
38239;DHT22;24035;48.900;9.188;2023-01-29T09:56:41;2.50;1.00
38239;DHT22;24035;48.900;9.188;2023-01-29T09:59:11;2.70;1.00
38239;DHT22;24035;48.900;9.188;2023-01-29T10:01:44;2.90;99.90
38239;DHT22;24035;48.900;9.188;2023-01-29T10:21:01;3.10;99.90
38239;DHT22;24035;48.900;9.188;2023-01-29T10:23:40;3.60;99.90
38239;DHT22;24035;48.900;9.188;2023-01-29T10:26:11;4.00;99.90
38239;DHT22;24035;48.900;9.188;2023-01-29T10:28:41;3.90;99.90
38239;DHT22;24035;48.900;9.188;2023-01-29T10:31:29;4.10;99.90
38239;DHT22;24035;48.900;9.188;2023-01-29T10:34:13;4.10;99.90
38239;DHT22;24035;48.900;9.188;2023-01-29T10:36:46;3.80;99.90
38239;DHT22;24035;48.900;9.188;2023-01-29T10:39:19;3.80;99.90
38239;DHT22;24035;48.900;9.188;2023-01-29T10:44:36;3.10;99.90
38239;DHT22;24035;48.900;9.188;2023-01-29T10:55:51;3.50;99.90
38239;DHT22;24035;48.900;9.188;2023-01-29T10:58:33;3.50;99.90
38239;DHT22;24035;48.900;9.188;2023-01-29T11:01:00;3.60;99.90
38239;DHT22;24035;48.900;9.188;2023-01-29T11:03:31;3.30;99.90
38239;DHT22;24035;48.900;9.188;2023-01-29T11:06:16;2.80;99.90
38239;DHT22;24035;48.900;9.188;2023-01-29T11:11:15;2.40;99.90
38239;DHT22;24035;48.900;9.188;2023-01-29T11:13:52;2.40;99.90
38239;DHT22;24035;48.900;9.188;2023-01-29T11:16:19;2.20;99.90
38239;DHT22;24035;48.900;9.188;2023-01-29T11:18:52;2.10;99.90
38239;DHT22;24035;48.900;9.188;2023-01-29T11:21:18;1.70;99.90
38239;DHT22;24035;48.900;9.188;2023-01-29T11:23:44;1.80;1.00
38239;DHT22;24035;48.900;9.188;2023-01-29T11:26:12;2.10;1.00
38239;DHT22;24035;48.900;9.188;2023-01-29T11:28:45;2.30;1.00
38239;DHT22;24035;48.900;9.188;2023-01-29T11:31:21;2.60;1.00
38239;DHT22;24035;48.900;9.188;2023-01-29T11:33:49;2.50;99.90
38239;DHT22;24035;48.900;9.188;2023-01-29T11:36:25;2.50;99.90
38239;DHT22;24035;48.900;9.188;2023-01-29T11:39:20;2.70;99.90
38239;DHT22;24035;48.900;9.188;2023-01-29T11:44:41;2.80;99.90
38239;DHT22;24035;48.900;9.188;2023-01-29T11:49:57;2.80;99.90
38239;DHT22;24035;48.900;9.188;2023-01-29T11:52:38;3.00;99.90
38239;DHT22;24035;48.900;9.188;2023-01-29T11:55:23;3.00;99.90
38239;DHT22;24035;48.900;9.188;2023-01-29T11:58:00;3.20;99.90
38239;DHT22;24035;48.900;9.188;2023-01-29T12:00:30;3.10;99.90
38239;DHT22;24035;48.900;9.188;2023-01-29T12:03:09;3.00;99.90
38239;DHT22;24035;48.900;9.188;2023-01-29T12:05:38;2.60;99.90
38239;DHT22;24035;48.900;9.188;2023-01-29T12:08:15;2.40;99.90
38239;DHT22;24035;48.900;9.188;2023-01-29T12:10:42;2.30;99.90
38239;DHT22;24035;48.900;9.188;2023-01-29T12:15:44;2.30;1.00
38239;DHT22;24035;48.900;9.188;2023-01-29T12:20:56;2.70;1.00
38239;DHT22;24035;48.900;9.188;2023-01-29T12:26:08;2.90;1.00
38239;DHT22;24035;48.900;9.188;2023-01-29T12:35:00;2.80;1.00
38239;DHT22;24035;48.900;9.188;2023-01-29T12:40:01;3.10;99.90
38239;DHT22;24035;48.900;9.188;2023-01-29T12:42:27;3.30;99.90
38239;DHT22;24035;48.900;9.188;2023-01-29T12:45:02;3.40;99.90
38239;DHT22;24035;48.900;9.188;2023-01-29T12:47:37;3.50;99.90
38239;DHT22;24035;48.900;9.188;2023-01-29T12:50:16;3.80;99.90
38239;DHT22;24035;48.900;9.188;2023-01-29T12:53:03;3.50;99.90
38239;DHT22;24035;48.900;9.188;2023-01-29T12:55:41;3.40;99.90
38239;DHT22;24035;48.900;9.188;2023-01-29T12:58:22;3.40;99.90
38239;DHT22;24035;48.900;9.188;2023-01-29T13:00:55;3.40;99.90
38239;DHT22;24035;48.900;9.188;2023-01-29T13:05:59;3.50;99.90
38239;DHT22;24035;48.900;9.188;2023-01-29T13:08:31;3.50;99.90
38239;DHT22;24035;48.900;9.188;2023-01-29T13:11:01;3.40;99.90
38239;DHT22;24035;48.900;9.188;2023-01-29T13:16:03;3.60;99.90
38239;DHT22;24035;48.900;9.188;2023-01-29T13:18:43;3.60;99.90
38239;DHT22;24035;48.900;9.188;2023-01-29T13:21:22;3.50;99.90
38239;DHT22;24035;48.900;9.188;2023-01-29T13:23:52;3.50;99.90
38239;DHT22;24035;48.900;9.188;2023-01-29T13:26:20;3.60;99.90
38239;DHT22;24035;48.900;9.188;2023-01-29T13:28:47;3.50;99.90
38239;DHT22;24035;48.900;9.188;2023-01-29T13:31:27;3.00;99.90
38239;DHT22;24035;48.900;9.188;2023-01-29T13:34:14;2.60;99.90
38239;DHT22;24035;48.900;9.188;2023-01-29T13:36:45;2.70;1.00
38239;DHT22;24035;48.900;9.188;2023-01-29T13:39:33;2.60;1.00
38239;DHT22;24035;48.900;9.188;2023-01-29T13:42:02;2.70;1.00
38239;DHT22;24035;48.900;9.188;2023-01-29T13:44:39;2.70;1.00
38239;DHT22;24035;48.900;9.188;2023-01-29T13:47:08;2.50;1.00
38239;DHT22;24035;48.900;9.188;2023-01-29T13:49:46;2.50;1.00
38239;DHT22;24035;48.900;9.188;2023-01-29T13:55:06;2.50;1.00
38239;DHT22;24035;48.900;9.188;2023-01-29T13:57:34;2.50;1.00
38239;DHT22;24035;48.900;9.188;2023-01-29T14:00:00;2.60;1.00
38239;DHT22;24035;48.900;9.188;2023-01-29T14:02:28;2.70;1.00
38239;DHT22;24035;48.900;9.188;2023-01-29T14:08:00;3.00;1.00
38239;DHT22;24035;48.900;9.188;2023-01-29T14:10:31;2.80;1.00
38239;DHT22;24035;48.900;9.188;2023-01-29T14:15:28;2.30;1.00
38239;DHT22;24035;48.900;9.188;2023-01-29T14:18:21;2.20;1.00
38239;DHT22;24035;48.900;9.188;2023-01-29T14:20:57;2.20;1.00
38239;DHT22;24035;48.900;9.188;2023-01-29T14:23:39;2.20;1.00
38239;DHT22;24035;48.900;9.188;2023-01-29T14:31:46;1.90;1.00
38239;DHT22;24035;48.900;9.188;2023-01-29T14:34:23;1.80;1.00
38239;DHT22;24035;48.900;9.188;2023-01-29T14:36:53;1.80;1.00
38239;DHT22;24035;48.900;9.188;2023-01-29T14:39:34;1.60;1.00
38239;DHT22;24035;48.900;9.188;2023-01-29T14:42:03;1.60;1.00
38239;DHT22;24035;48.900;9.188;2023-01-29T14:47:22;1.50;1.00
38239;DHT22;24035;48.900;9.188;2023-01-29T14:52:58;1.60;1.00
38239;DHT22;24035;48.900;9.188;2023-01-29T14:56:02;1.50;1.00
38239;DHT22;24035;48.900;9.188;2023-01-29T14:58:47;1.50;1.00
38239;DHT22;24035;48.900;9.188;2023-01-29T15:01:30;1.40;1.00
38239;DHT22;24035;48.900;9.188;2023-01-29T15:04:06;1.30;1.00
38239;DHT22;24035;48.900;9.188;2023-01-29T15:06:43;1.30;1.00
38239;DHT22;24035;48.900;9.188;2023-01-29T15:12:04;1.30;19.10
38239;DHT22;24035;48.900;9.188;2023-01-29T15:14:34;1.30;63.20
38239;DHT22;24035;48.900;9.188;2023-01-29T15:19:48;1.30;51.90
38239;DHT22;24035;48.900;9.188;2023-01-29T15:22:17;1.20;73.20
38239;DHT22;24035;48.900;9.188;2023-01-29T15:24:44;1.20;99.90
38239;DHT22;24035;48.900;9.188;2023-01-29T15:27:16;1.20;99.90
38239;DHT22;24035;48.900;9.188;2023-01-29T15:29:49;1.20;99.90
38239;DHT22;24035;48.900;9.188;2023-01-29T15:32:44;1.20;61.80
38239;DHT22;24035;48.900;9.188;2023-01-29T15:35:33;1.20;13.40
38239;DHT22;24035;48.900;9.188;2023-01-29T15:38:13;1.10;45.20
38239;DHT22;24035;48.900;9.188;2023-01-29T15:40:39;1.10;82.40
38239;DHT22;24035;48.900;9.188;2023-01-29T15:43:23;1.10;99.90
38239;DHT22;24035;48.900;9.188;2023-01-29T15:46:31;1.00;99.90
38239;DHT22;24035;48.900;9.188;2023-01-29T15:48:40;0.90;99.90
38239;DHT22;24035;48.900;9.188;2023-01-29T15:51:07;0.90;99.90
38239;DHT22;24035;48.900;9.188;2023-01-29T15:53:48;0.80;99.90
38239;DHT22;24035;48.900;9.188;2023-01-29T15:56:17;0.80;99.90
38239;DHT22;24035;48.900;9.188;2023-01-29T15:58:46;0.70;99.90
38239;DHT22;24035;48.900;9.188;2023-01-29T16:01:13;0.60;99.90
38239;DHT22;24035;48.900;9.188;2023-01-29T16:03:39;0.60;99.90
38239;DHT22;24035;48.900;9.188;2023-01-29T16:06:05;0.60;1.00
38239;DHT22;24035;48.900;9.188;2023-01-29T16:08:33;0.50;1.00
38239;DHT22;24035;48.900;9.188;2023-01-29T16:11:02;0.60;99.90
38239;DHT22;24035;48.900;9.188;2023-01-29T16:13:31;0.50;1.00
38239;DHT22;24035;48.900;9.188;2023-01-29T16:16:03;0.40;1.00
38239;DHT22;24035;48.900;9.188;2023-01-29T16:18:37;0.30;1.00
38239;DHT22;24035;48.900;9.188;2023-01-29T16:21:09;0.20;1.00
38239;DHT22;24035;48.900;9.188;2023-01-29T16:23:58;0.10;1.00
38239;DHT22;24035;48.900;9.188;2023-01-29T16:26:47;0.00;1.00
38239;DHT22;24035;48.900;9.188;2023-01-29T16:29:21;0.00;1.00
38239;DHT22;24035;48.900;9.188;2023-01-29T16:31:51;-0.10;1.00
38239;DHT22;24035;48.900;9.188;2023-01-29T16:34:24;-0.10;1.00
38239;DHT22;24035;48.900;9.188;2023-01-29T16:36:50;0.00;1.00
38239;DHT22;24035;48.900;9.188;2023-01-29T16:39:20;-0.10;1.00
38239;DHT22;24035;48.900;9.188;2023-01-29T16:45:02;-0.10;1.00
38239;DHT22;24035;48.900;9.188;2023-01-29T16:47:38;0.00;1.00
38239;DHT22;24035;48.900;9.188;2023-01-29T16:50:31;-0.10;1.00
38239;DHT22;24035;48.900;9.188;2023-01-29T16:53:04;-0.30;1.00
38239;DHT22;24035;48.900;9.188;2023-01-29T16:55:40;-0.50;1.00
38239;DHT22;24035;48.900;9.188;2023-01-29T16:58:13;-0.70;99.90
38239;DHT22;24035;48.900;9.188;2023-01-29T17:00:43;-0.80;99.90
38239;DHT22;24035;48.900;9.188;2023-01-29T17:03:11;-0.80;99.90
38239;DHT22;24035;48.900;9.188;2023-01-29T17:05:37;-0.80;1.00
38239;DHT22;24035;48.900;9.188;2023-01-29T17:08:03;-0.80;1.00
38239;DHT22;24035;48.900;9.188;2023-01-29T17:10:30;-0.90;1.00
38239;DHT22;24035;48.900;9.188;2023-01-29T17:13:02;-1.00;1.00
38239;DHT22;24035;48.900;9.188;2023-01-29T17:20:43;-0.90;1.00
38239;DHT22;24035;48.900;9.188;2023-01-29T17:23:08;-0.90;1.00
38239;DHT22;24035;48.900;9.188;2023-01-29T17:25:34;-0.90;1.00
38239;DHT22;24035;48.900;9.188;2023-01-29T17:28:01;-0.90;1.00
38239;DHT22;24035;48.900;9.188;2023-01-29T17:30:30;-0.90;1.00
38239;DHT22;24035;48.900;9.188;2023-01-29T17:32:58;-1.00;1.00
38239;DHT22;24035;48.900;9.188;2023-01-29T17:35:23;-1.00;1.00
38239;DHT22;24035;48.900;9.188;2023-01-29T17:37:49;-1.10;1.00
38239;DHT22;24035;48.900;9.188;2023-01-29T17:40:31;-1.00;99.90
38239;DHT22;24035;48.900;9.188;2023-01-29T17:42:58;-1.00;21.50
38239;DHT22;24035;48.900;9.188;2023-01-29T17:45:23;-1.20;1.00
38239;DHT22;24035;48.900;9.188;2023-01-29T17:47:49;-1.20;99.90
38239;DHT22;24035;48.900;9.188;2023-01-29T17:50:22;-1.20;99.90
38239;DHT22;24035;48.900;9.188;2023-01-29T17:52:48;-1.30;99.90
38239;DHT22;24035;48.900;9.188;2023-01-29T17:55:14;-1.30;99.90
38239;DHT22;24035;48.900;9.188;2023-01-29T17:57:40;-1.30;1.00
38239;DHT22;24035;48.900;9.188;2023-01-29T18:00:18;-1.30;1.00
38239;DHT22;24035;48.900;9.188;2023-01-29T18:02:45;-1.30;1.00
38239;DHT22;24035;48.900;9.188;2023-01-29T18:05:11;-1.30;1.00
38239;DHT22;24035;48.900;9.188;2023-01-29T18:07:38;-1.40;1.00
38239;DHT22;24035;48.900;9.188;2023-01-29T18:10:04;-1.50;1.00
38239;DHT22;24035;48.900;9.188;2023-01-29T18:12:30;-1.50;1.00
38239;DHT22;24035;48.900;9.188;2023-01-29T18:14:56;-1.50;1.00
38239;DHT22;24035;48.900;9.188;2023-01-29T18:17:21;-1.40;1.00
38239;DHT22;24035;48.900;9.188;2023-01-29T18:22:39;-1.50;1.00
38239;DHT22;24035;48.900;9.188;2023-01-29T18:25:05;-1.50;1.00
38239;DHT22;24035;48.900;9.188;2023-01-29T18:27:31;-1.50;99.90